GDM weather

Gardner Municipal Airport
Gardner, Massachusetts, United States

Public forecast

Using degrees Fahrenheit for public forecast. Weather courtesy of forecast.io.

METAR (pilot weather report)

Closest report is Fitchburg Municipal Airport, 11.4 nm (21.1 km) E. Retrieved 2019/05/21 10:52 UTC (12 minutes ago):

KFIT 211052Z AUTO 30014G19KT 10SM FEW042 13/04 A2977 RMK AO2 SLP079 T01280044

TAF (pilot weather forecast)

Closest forecast is Worcester Regional Airport, 18.1 nm (33.5 km) SSE. Retrieved 2019/05/21 06:33 UTC (5 hours ago):

TAF KORH 210530Z 2106/2206 29013G26KT P6SM FEW250 FM210900 29012G20KT P6SM FEW250 FM211500 30019G28KT P6SM FEW250 FM220000 31016G24KT P6SM SCT070 FM220300 31008KT P6SM FEW250